Time;durP1;ratioP1;P1;durP2;ratioP2;P2;SDS_P1;SDS_P2;PMS_P1;PMS_P2;Temp;Humidity;BMP_temperature;BMP_pressure;BME280_temperature;BME280_humidity;BME280_pressure;Samples;Min_cycle;Max_cycle;Signal;HPM_P1;HPM_P2
2022/12/12 00:00:45;;;;;;;37.58;20.73;;;;;;;;;;5029327;28;20461;-70
2022/12/12 00:03:11;;;;;;;39.30;20.85;;;;;;;;;;5017783;28;20771;-70
2022/12/12 00:05:39;;;;;;;37.38;19.83;;;;;;;;;;5023932;28;20510;-70
2022/12/12 00:08:05;;;;;;;37.55;20.27;;;;;;;;;;5029696;28;20433;-71
2022/12/12 00:10:31;;;;;;;38.85;20.52;;;;;;;;;;5029582;28;20775;-71
2022/12/12 00:12:57;;;;;;;39.17;19.87;;;;;;;;;;5031338;28;20426;-72
2022/12/12 00:15:23;;;;;;;32.53;19.40;;;;;;;;;;5030423;28;20431;-71
2022/12/12 00:17:49;;;;;;;38.65;20.27;;;;;;;;;;5028428;28;20569;-71
2022/12/12 00:20:15;;;;;;;37.97;20.17;;;;;;;;;;5031931;28;20402;-71
2022/12/12 00:22:41;;;;;;;36.47;19.27;;;;;;;;;;5030501;28;20475;-71
2022/12/12 00:25:08;;;;;;;37.15;20.02;;;;;;;;;;5021829;28;20419;-71
2022/12/12 00:27:34;;;;;;;36.55;20.30;;;;;;;;;;5031876;28;20403;-71
2022/12/12 00:30:00;;;;;;;34.47;19.08;;;;;;;;;;5025696;28;20495;-71
2022/12/12 00:32:26;;;;;;;35.30;19.90;;;;;;;;;;5012097;28;20405;-71
2022/12/12 00:34:52;;;;;;;33.13;19.33;;;;;;;;;;5003702;28;20502;-71
2022/12/12 00:37:18;;;;;;;35.10;20.13;;;;;;;;;;5024270;28;20515;-71
2022/12/12 00:39:44;;;;;;;35.25;20.10;;;;;;;;;;5029633;28;20438;-71
2022/12/12 00:42:10;;;;;;;38.08;20.70;;;;;;;;;;5026749;28;20787;-71
2022/12/12 00:44:36;;;;;;;37.97;20.30;;;;;;;;;;5014733;28;20434;-71
2022/12/12 00:47:02;;;;;;;38.72;21.20;;;;;;;;;;5006526;28;20423;-71
2022/12/12 00:49:29;;;;;;;38.03;20.60;;;;;;;;;;5031195;28;20419;-71
2022/12/12 00:51:55;;;;;;;37.42;20.73;;;;;;;;;;5026382;28;20422;-71
2022/12/12 00:54:22;;;;;;;38.65;20.40;;;;;;;;;;5008731;28;20431;-71
2022/12/12 00:56:48;;;;;;;40.83;21.20;;;;;;;;;;5029091;28;20446;-71
2022/12/12 00:59:14;;;;;;;36.65;20.65;;;;;;;;;;5030617;28;20431;-70
2022/12/12 01:01:40;;;;;;;35.78;19.42;;;;;;;;;;5031016;28;20549;-72
2022/12/12 01:04:06;;;;;;;36.60;20.58;;;;;;;;;;5024357;28;20418;-72
2022/12/12 01:06:33;;;;;;;38.03;20.02;;;;;;;;;;5023621;28;20422;-72
2022/12/12 01:08:59;;;;;;;39.13;20.52;;;;;;;;;;5030331;28;20814;-72
2022/12/12 01:11:25;;;;;;;37.70;20.70;;;;;;;;;;5029242;28;20533;-72
2022/12/12 01:13:52;;;;;;;38.95;20.40;;;;;;;;;;5028803;28;20430;-71
2022/12/12 01:16:18;;;;;;;33.83;18.53;;;;;;;;;;5024830;28;21017;-71
2022/12/12 01:18:44;;;;;;;32.88;18.95;;;;;;;;;;5027104;28;20510;-71
2022/12/12 01:21:11;;;;;;;33.30;18.73;;;;;;;;;;5027301;28;20469;-71
2022/12/12 01:23:38;;;;;;;33.10;18.38;;;;;;;;;;5022265;28;20427;-69
2022/12/12 01:26:05;;;;;;;34.90;18.50;;;;;;;;;;5026550;28;20602;-70
2022/12/12 01:28:31;;;;;;;33.88;18.98;;;;;;;;;;5027479;28;20426;-71
2022/12/12 01:30:57;;;;;;;35.30;19.88;;;;;;;;;;5000578;28;20428;-71
2022/12/12 01:33:23;;;;;;;34.80;19.13;;;;;;;;;;5011122;28;20897;-71
2022/12/12 01:35:49;;;;;;;34.80;19.10;;;;;;;;;;4979457;28;20423;-70
2022/12/12 01:38:15;;;;;;;37.90;20.60;;;;;;;;;;5028568;28;20434;-70
2022/12/12 01:40:41;;;;;;;37.50;18.97;;;;;;;;;;5024773;28;20434;-71
2022/12/12 01:43:15;;;;;;;35.30;18.23;;;;;;;;;;5025133;28;20462;-70
2022/12/12 01:46:02;;;;;;;34.00;18.98;;;;;;;;;;5030804;28;20457;-71
2022/12/12 01:48:34;;;;;;;33.78;18.52;;;;;;;;;;5021274;28;20466;-70
2022/12/12 01:51:02;;;;;;;34.60;18.35;;;;;;;;;;5011385;28;20418;-71
2022/12/12 01:53:29;;;;;;;33.90;18.38;;;;;;;;;;5027242;28;20509;-71
2022/12/12 01:55:55;;;;;;;34.03;18.10;;;;;;;;;;5030470;28;20504;-71
2022/12/12 01:58:22;;;;;;;32.55;17.50;;;;;;;;;;5039795;28;20460;-71
2022/12/12 02:00:48;;;;;;;32.33;17.42;;;;;;;;;;5031897;28;20432;-71
2022/12/12 02:03:14;;;;;;;33.78;18.23;;;;;;;;;;5049669;28;20421;-70
2022/12/12 02:05:50;;;;;;;33.25;18.55;;;;;;;;;;5049471;28;20479;-71
2022/12/12 02:08:16;;;;;;;31.80;17.17;;;;;;;;;;5040025;28;20421;-71
2022/12/12 02:10:46;;;;;;;32.13;18.23;;;;;;;;;;5033122;28;20920;-71
2022/12/12 02:13:14;;;;;;;32.35;18.17;;;;;;;;;;5047445;28;20443;-71
2022/12/12 02:15:42;;;;;;;36.22;17.60;;;;;;;;;;5047775;28;20510;-71
2022/12/12 02:18:16;;;;;;;30.95;17.63;;;;;;;;;;5050385;28;20836;-71
2022/12/12 02:20:47;;;;;;;30.50;17.27;;;;;;;;;;5049276;28;20496;-70
2022/12/12 02:23:41;;;;;;;33.03;17.60;;;0.70;99.90;;;;;;5046661;28;20927;-71
2022/12/12 02:26:14;;;;;;;30.80;16.95;;;;;;;;;;5048599;28;20449;-70
2022/12/12 02:28:40;;;;;;;30.73;17.75;;;;;;;;;;5025539;28;20458;-70
2022/12/12 02:31:12;;;;;;;32.15;17.85;;;;;;;;;;5036411;28;20435;-70
2022/12/12 02:33:42;;;;;;;32.65;18.30;;;;;;;;;;5052361;28;20428;-70
2022/12/12 02:36:08;;;;;;;29.92;17.08;;;;;;;;;;5052485;28;20411;-70
2022/12/12 02:38:57;;;;;;;32.13;17.33;;;;;;;;;;5052582;28;20421;-69
2022/12/12 02:41:41;;;;;;;32.30;17.50;;;;;;;;;;5053285;28;20909;-70
2022/12/12 02:44:12;;;;;;;32.83;17.60;;;;;;;;;;5049871;28;20918;-70
2022/12/12 02:46:47;;;;;;;32.55;16.90;;;;;;;;;;5052307;28;20436;-70
2022/12/12 02:49:17;;;;;;;30.40;16.83;;;;;;;;;;5031965;28;20432;-70
2022/12/12 02:51:45;;;;;;;31.05;17.08;;;;;;;;;;5049881;28;20428;-69
2022/12/12 02:54:13;;;;;;;32.03;17.02;;;;;;;;;;5036218;28;20474;-70
2022/12/12 02:56:50;;;;;;;31.15;17.33;;;;;;;;;;5052036;28;20474;-70
2022/12/12 02:59:19;;;;;;;29.27;16.40;;;;;;;;;;5033436;28;20427;-70
2022/12/12 03:02:23;;;;;;;32.22;17.60;;;0.50;99.90;;;;;;5016560;28;20428;-70
2022/12/12 03:07:47;;;;;;;31.23;17.17;;;;;;;;;;5001122;28;20445;-71
2022/12/12 03:10:22;;;;;;;33.13;16.80;;;;;;;;;;5030577;28;20917;-71
2022/12/12 03:12:59;;;;;;;29.65;16.25;;;;;;;;;;5014722;28;20434;-71
2022/12/12 03:15:45;;;;;;;31.73;17.35;;;;;;;;;;5030730;28;20427;-71
2022/12/12 03:18:23;;;;;;;30.38;17.08;;;;;;;;;;5031761;28;20431;-72
2022/12/12 03:21:03;;;;;;;28.65;16.08;;;;;;;;;;5015153;28;20415;-71
2022/12/12 03:23:35;;;;;;;29.35;17.17;;;;;;;;;;5024541;28;20429;-71
2022/12/12 03:26:07;;;;;;;32.00;16.88;;;;;;;;;;5050155;28;20434;-71
2022/12/12 03:28:53;;;;;;;31.77;16.98;;;;;;;;;;5033084;28;20399;-71
2022/12/12 03:31:23;;;;;;;30.40;16.75;;;;;;;;;;5013350;28;20425;-71
2022/12/12 03:34:07;;;;;;;30.57;16.57;;;;;;;;;;5030912;28;20514;-71
2022/12/12 03:36:45;;;;;;;30.17;17.13;;;;;;;;;;5019737;28;20872;-71
2022/12/12 03:39:20;;;;;;;31.58;17.38;;;;;;;;;;5029753;28;20522;-71
2022/12/12 03:41:57;;;;;;;28.92;16.77;;;;;;;;;;5031705;28;20423;-71
2022/12/12 03:44:32;;;;;;;35.78;19.70;;;;;;;;;;5031304;28;20437;-71
2022/12/12 03:47:03;;;;;;;32.45;17.67;;;;;;;;;;5031904;28;20941;-71
2022/12/12 03:49:33;;;;;;;27.30;15.55;;;;;;;;;;5029686;28;20496;-71
2022/12/12 03:52:06;;;;;;;28.33;16.57;;;;;;;;;;5014357;28;21183;-72
2022/12/12 03:54:50;;;;;;;29.23;16.30;;;;;;;;;;5029812;28;20423;-71
2022/12/12 03:57:22;;;;;;;37.47;17.60;;;;;;;;;;5027186;28;20434;-71
2022/12/12 03:59:53;;;;;;;28.80;15.65;;;;;;;;;;5042578;28;20981;-71
2022/12/12 04:02:41;;;;;;;28.70;16.00;;;;;;;;;;5039023;28;20833;-71
2022/12/12 04:05:07;;;;;;;29.67;16.45;;;;;;;;;;5051384;28;20409;-71
2022/12/12 04:07:37;;;;;;;28.75;16.20;;;;;;;;;;5034932;28;20431;-71
2022/12/12 04:13:08;;;;;;;30.85;17.02;;;;;;;;;;5049438;28;20440;-71
2022/12/12 04:15:53;;;;;;;29.15;15.57;;;0.10;99.90;;;;;;5011990;28;20483;-71
2022/12/12 04:18:24;;;;;;;29.33;16.73;;;;;;;;;;5035688;28;20425;-71
2022/12/12 04:23:35;;;;;;;30.15;16.70;;;;;;;;;;5035059;28;20931;-71
2022/12/12 04:29:07;;;;;;;29.38;16.50;;;;;;;;;;5044385;28;20497;-71
2022/12/12 04:31:36;;;;;;;30.70;16.10;;;;;;;;;;5027825;28;21183;-71
2022/12/12 04:34:05;;;;;;;27.63;15.77;;;;;;;;;;5042215;28;20424;-71
2022/12/12 04:36:31;;;;;;;29.13;15.85;;;;;;;;;;5050279;28;20467;-71
2022/12/12 04:38:59;;;;;;;31.20;16.77;;;;;;;;;;5050106;28;20517;-71
2022/12/12 04:41:26;;;;;;;29.17;16.30;;;;;;;;;;5051493;28;20813;-71
2022/12/12 04:43:54;;;;;;;29.55;15.63;;;;;;;;;;5050160;28;20461;-71
2022/12/12 04:46:23;;;;;;;33.05;16.42;;;;;;;;;;5033072;28;20769;-71
2022/12/12 04:48:55;;;;;;;31.38;15.82;;;;;;;;;;5022690;28;20422;-71
2022/12/12 04:51:36;;;;;;;30.65;16.27;;;;;;;;;;5050356;28;20923;-71
2022/12/12 04:54:09;;;;;;;30.38;17.20;;;;;;;;;;5040330;28;20790;-79
2022/12/12 04:56:36;;;;;;;36.10;17.47;;;;;;;;;;5033705;28;20935;-80
2022/12/12 04:59:03;;;;;;;27.33;15.77;;;;;;;;;;5061118;28;20501;-79
2022/12/12 05:01:33;;;;;;;28.48;16.15;;;;;;;;;;5033741;28;20901;-78
2022/12/12 05:04:01;;;;;;;29.85;16.70;;;;;;;;;;5025274;28;20473;-78
2022/12/12 05:06:47;;;;;;;28.67;16.20;;;;;;;;;;5054941;28;20400;-77
2022/12/12 05:09:15;;;;;;;29.92;16.33;;;;;;;;;;5054039;28;20439;-78
2022/12/12 05:11:42;;;;;;;34.85;20.20;;;;;;;;;;5069079;28;20419;-78
2022/12/12 05:14:15;;;;;;;31.88;16.95;;;;;;;;;;5041249;28;20438;-77
2022/12/12 05:16:43;;;;;;;29.52;16.35;;;;;;;;;;5038113;28;20853;-77
2022/12/12 05:19:09;;;;;;;28.10;16.33;;;;;;;;;;5053377;28;20462;-78
2022/12/12 05:21:35;;;;;;;29.57;16.00;;;;;;;;;;5062500;28;20505;-78
2022/12/12 05:24:01;;;;;;;31.40;16.75;;;;;;;;;;5077481;28;20427;-79
2022/12/12 05:26:29;;;;;;;30.02;16.58;;;;;;;;;;5052068;28;20942;-78
2022/12/12 05:28:55;;;;;;;29.27;16.92;;;;;;;;;;5057439;28;20399;-78
2022/12/12 05:31:21;;;;;;;30.65;16.58;;;;;;;;;;5035854;28;20416;-78
2022/12/12 05:33:47;;;;;;;31.42;17.20;;;;;;;;;;5029772;28;21952;-78
2022/12/12 05:36:13;;;;;;;30.00;16.83;;;;;;;;;;5056586;28;20462;-78
2022/12/12 05:38:40;;;;;;;29.85;16.73;;;;;;;;;;5039029;28;20511;-78
2022/12/12 05:41:06;;;;;;;29.42;16.75;;;;;;;;;;5039838;28;20426;-78
2022/12/12 05:43:32;;;;;;;29.50;16.73;;;;;;;;;;5054886;28;20748;-77
2022/12/12 05:45:59;;;;;;;30.67;17.07;;;;;;;;;;5055653;28;20411;-79
2022/12/12 05:48:25;;;;;;;29.85;16.50;;;;;;;;;;5054517;28;20468;-79
2022/12/12 05:50:51;;;;;;;30.25;16.75;;;;;;;;;;5049065;28;20423;-79
2022/12/12 05:53:18;;;;;;;29.98;16.52;;;;;;;;;;5055646;28;20423;-79
2022/12/12 05:55:44;;;;;;;32.07;17.37;;;;;;;;;;5054141;28;20876;-78
2022/12/12 05:58:10;;;;;;;30.50;17.10;;;;;;;;;;5047162;28;20962;-79
2022/12/12 06:00:36;;;;;;;30.00;17.07;;;;;;;;;;5048557;28;20434;-78
2022/12/12 06:03:03;;;;;;;28.40;16.30;;;;;;;;;;5055568;28;20411;-79
2022/12/12 06:05:29;;;;;;;26.27;15.95;;;;;;;;;;5037199;28;20419;-78
2022/12/12 06:07:55;;;;;;;28.10;15.80;;;;;;;;;;5057749;28;20446;-77
2022/12/12 06:10:21;;;;;;;28.92;16.30;;;;;;;;;;5052701;28;20436;-78
2022/12/12 06:12:47;;;;;;;30.33;17.20;;;;;;;;;;5041687;28;20441;-78
2022/12/12 06:15:13;;;;;;;29.63;16.90;;;;;;;;;;5045095;28;20427;-79
2022/12/12 06:17:39;;;;;;;29.85;16.75;;;;;;;;;;5045924;28;20437;-79
2022/12/12 06:20:06;;;;;;;30.23;16.45;;;;;;;;;;5059591;28;20914;-79
2022/12/12 06:22:33;;;;;;;33.78;16.23;;;;;;;;;;5032067;28;20916;-79
2022/12/12 06:24:59;;;;;;;28.17;16.13;;;;;;;;;;5047933;28;20459;-79
2022/12/12 06:27:26;;;;;;;33.60;19.15;;;;;;;;;;5052487;28;20503;-79
2022/12/12 06:29:52;;;;;;;27.55;15.52;;;;;;;;;;5068017;28;20426;-78
2022/12/12 06:32:18;;;;;;;26.10;15.60;;;;;;;;;;5056529;28;20427;-78
2022/12/12 06:34:45;;;;;;;77.90;21.95;;;;;;;;;;5055127;28;20425;-78
2022/12/12 06:37:11;;;;;;;29.58;17.13;;;;;;;;;;5060216;28;20480;-79
2022/12/12 06:39:37;;;;;;;31.05;17.42;;;;;;;;;;5057993;28;20461;-79
2022/12/12 06:42:03;;;;;;;36.58;17.88;;;;;;;;;;5056405;28;21542;-79
2022/12/12 06:44:29;;;;;;;31.23;16.70;;;;;;;;;;5057768;28;20446;-79
2022/12/12 06:46:55;;;;;;;29.50;16.92;;;;;;;;;;5042788;28;20415;-77
2022/12/12 06:49:21;;;;;;;31.23;16.45;;;;;;;;;;5059451;28;20513;-79
2022/12/12 06:51:47;;;;;;;32.22;17.17;;;;;;;;;;5027574;28;20424;-80
2022/12/12 06:54:16;;;;;;;32.75;18.60;;;;;;;;;;5057520;28;20431;-80
2022/12/12 06:56:42;;;;;;;28.20;16.38;;;;;;;;;;5041174;28;20795;-77
2022/12/12 06:59:09;;;;;;;33.23;17.60;;;;;;;;;;5038297;28;20792;-79
2022/12/12 07:01:35;;;;;;;38.55;20.77;;;;;;;;;;5054787;28;20417;-79
2022/12/12 07:04:01;;;;;;;31.88;18.75;;;;;;;;;;5051255;28;20512;-78
2022/12/12 07:06:27;;;;;;;30.13;17.90;;;;;;;;;;5035715;28;20416;-79
2022/12/12 07:08:54;;;;;;;32.33;18.23;;;;;;;;;;5056110;28;20457;-79
2022/12/12 07:11:23;;;;;;;31.23;18.15;;;;;;;;;;5055443;28;20413;-78
2022/12/12 07:13:50;;;;;;;30.50;17.85;;;;;;;;;;5047410;28;20454;-79
2022/12/12 07:16:17;;;;;;;30.70;17.10;;;;;;;;;;5047722;28;20415;-79
2022/12/12 07:18:43;;;;;;;32.20;18.40;;;;;;;;;;5049209;28;20429;-79
2022/12/12 07:21:11;;;;;;;30.63;17.42;;;;;;;;;;5047887;28;20482;-78
2022/12/12 07:23:37;;;;;;;34.70;18.02;;;;;;;;;;5045401;28;20922;-79
2022/12/12 07:26:08;;;;;;;31.48;18.20;;;;;;;;;;5047445;28;20838;-80
2022/12/12 07:28:34;;;;;;;33.90;20.63;;;;;;;;;;5048624;28;20487;-79
2022/12/12 07:31:04;;;;;;;33.28;19.85;;;;;;;;;;5026322;28;20760;-79
2022/12/12 07:33:30;;;;;;;31.27;19.40;;;;;;;;;;5041176;28;20427;-80
2022/12/12 07:35:59;;;;;;;35.90;19.73;;;;;;;;;;5042915;28;20510;-80
2022/12/12 07:38:26;;;;;;;35.75;20.05;;;;;;;;;;5034020;28;20427;-80
2022/12/12 07:40:52;;;;;;;39.88;22.80;;;;;;;;;;5016967;28;20403;-80
2022/12/12 07:43:18;;;;;;;36.20;22.52;;;;;;;;;;5033310;28;20498;-79
2022/12/12 07:45:45;;;;;;;34.78;20.58;;;;;;;;;;5053435;28;20409;-80
2022/12/12 07:48:11;;;;;;;32.40;19.33;;;;;;;;;;5036463;28;20413;-80
2022/12/12 07:50:38;;;;;;;28.53;17.03;;;;;;;;;;5049016;28;20421;-80
2022/12/12 07:53:04;;;;;;;31.60;17.83;;;;;;;;;;5031825;28;20432;-79
2022/12/12 07:55:30;;;;;;;35.25;20.42;;;;;;;;;;5051972;28;20428;-79
2022/12/12 07:57:56;;;;;;;50.38;28.23;;;;;;;;;;5046136;28;20429;-79
2022/12/12 08:00:23;;;;;;;40.53;23.27;;;;;;;;;;5046326;28;20423;-79
2022/12/12 08:02:49;;;;;;;50.78;27.20;;;;;;;;;;5055843;28;20433;-80
2022/12/12 08:05:16;;;;;;;39.73;22.23;;;;;;;;;;5048123;28;20457;-80
2022/12/12 08:07:42;;;;;;;29.45;17.27;;;;;;;;;;5030220;28;20487;-79
2022/12/12 08:10:11;;;;;;;32.55;18.23;;;;;;;;;;5054880;28;20502;-79
2022/12/12 08:12:37;;;;;;;30.23;17.98;;;;;;;;;;5051117;28;20416;-79
2022/12/12 08:15:03;;;;;;;31.23;17.27;;;;;;;;;;5028458;28;20512;-79
2022/12/12 08:17:29;;;;;;;30.10;17.55;;;;;;;;;;5031372;28;20931;-79
2022/12/12 08:19:55;;;;;;;28.98;18.38;;;;;;;;;;5039341;28;20426;-77
2022/12/12 08:22:21;;;;;;;30.23;18.10;;;;;;;;;;5032208;28;20504;-80
2022/12/12 08:24:48;;;;;;;31.08;18.13;;;;;;;;;;5047363;28;20413;-80
2022/12/12 08:27:15;;;;;;;31.17;18.92;;;;;;;;;;5048233;28;20425;-80
2022/12/12 08:29:41;;;;;;;34.22;19.67;;;;;;;;;;5044988;28;20421;-79
2022/12/12 08:32:07;;;;;;;34.00;20.88;;;;;;;;;;5028979;28;20424;-80
2022/12/12 08:34:33;;;;;;;31.50;18.30;;;;;;;;;;5043389;28;20942;-79
2022/12/12 08:36:59;;;;;;;36.95;22.27;;;;;;;;;;5050293;28;20423;-80
2022/12/12 08:39:25;;;;;;;59.92;36.63;;;;;;;;;;5018654;28;20416;-81
2022/12/12 08:41:52;;;;;;;55.43;35.83;;;;;;;;;;5043305;28;20922;-79
2022/12/12 08:44:19;;;;;;;35.90;20.60;;;;;;;;;;5052939;28;20758;-80
2022/12/12 08:46:45;;;;;;;38.53;23.92;;;;;;;;;;5046634;28;20458;-79
2022/12/12 08:49:12;;;;;;;37.28;21.98;;;;;;;;;;5035270;28;20419;-79
2022/12/12 08:51:38;;;;;;;32.13;19.83;;;;;;;;;;5047546;28;20446;-79
2022/12/12 08:54:05;;;;;;;30.50;18.17;;;;;;;;;;5038170;28;20455;-80
2022/12/12 08:56:31;;;;;;;28.25;16.35;;;;;;;;;;5038982;28;20491;-79
2022/12/12 08:58:57;;;;;;;29.25;17.63;;;;;;;;;;5049584;28;20428;-80
2022/12/12 09:01:24;;;;;;;30.27;17.02;;;;;;;;;;5028396;28;20436;-80
2022/12/12 09:03:51;;;;;;;31.85;18.88;;;;;;;;;;5042779;28;20921;-80
2022/12/12 09:06:18;;;;;;;26.50;16.77;;;;;;;;;;5029210;28;20443;-79
2022/12/12 09:08:44;;;;;;;28.70;16.67;;;;;;;;;;5030587;28;20417;-80
2022/12/12 09:11:11;;;;;;;27.02;16.27;;;;;;;;;;5025673;28;20488;-79
2022/12/12 09:13:37;;;;;;;30.85;17.42;;;;;;;;;;5050540;28;20428;-80
2022/12/12 09:16:04;;;;;;;28.70;17.00;;;;;;;;;;5032013;28;20795;-80
2022/12/12 09:18:30;;;;;;;30.00;16.90;;;;;;;;;;5033627;28;20447;-79
2022/12/12 09:20:57;;;;;;;35.95;18.90;;;;;;;;;;5051022;28;20422;-79
2022/12/12 09:23:24;;;;;;;32.95;17.65;;;;;;;;;;5047238;28;20492;-79
2022/12/12 09:25:50;;;;;;;27.42;15.73;;;;;;;;;;5043905;28;20428;-79
2022/12/12 09:28:17;;;;;;;31.80;18.60;;;;;;;;;;5048613;28;20524;-80
2022/12/12 09:30:51;;;;;;;39.97;25.58;;;;;;;;;;5034000;28;20419;-78
2022/12/12 09:33:18;;;;;;;33.63;20.92;;;;;;;;;;5033253;28;20433;-79
2022/12/12 09:35:44;;;;;;;33.33;20.52;;;;;;;;;;5050741;28;20488;-79
2022/12/12 09:38:11;;;;;;;29.60;18.40;;;;;;;;;;5049729;28;20510;-79
2022/12/12 09:41:12;;;;;;;31.55;17.80;;;;;;;;;;5043083;28;20462;-78
2022/12/12 09:43:46;;;;;;;28.88;17.02;;;;;;;;;;4971097;28;20434;-80
2022/12/12 09:46:26;;;;;;;28.42;17.60;;;;;;;;;;5028348;28;20959;-80
2022/12/12 09:48:53;;;;;;;28.15;17.00;;;;;;;;;;5061217;28;20511;-79
2022/12/12 09:51:19;;;;;;;27.00;16.38;;;;;;;;;;5049541;28;20427;-78
2022/12/12 09:53:46;;;;;;;29.48;16.58;;;;;;;;;;5031479;28;20483;-79
2022/12/12 09:56:12;;;;;;;28.05;17.23;;;;;;;;;;5049012;28;20504;-79
2022/12/12 09:58:56;;;;;;;28.30;17.50;;;;;;;;;;5037704;28;20511;-79
2022/12/12 10:01:45;;;;;;;28.33;17.40;;;;;;;;;;5050543;28;20911;-80
2022/12/12 10:04:19;;;;;;;26.13;16.20;;;;;;;;;;5046338;28;20452;-80
2022/12/12 10:06:58;;;;;;;27.20;16.50;;;;;;;;;;5049779;28;20415;-79
2022/12/12 10:09:24;;;;;;;25.60;15.70;;;;;;;;;;5045706;28;22270;-79
2022/12/12 10:11:53;;;;;;;25.40;15.68;;;;;;;;;;5035699;28;20427;-79
2022/12/12 10:14:26;;;;;;;27.30;16.48;;;;;;;;;;5032942;28;20447;-79
2022/12/12 10:16:52;;;;;;;27.45;15.55;;;;;;;;;;5063255;28;20423;-80
2022/12/12 10:19:26;;;;;;;26.87;15.40;;;;;;;;;;5055334;28;20957;-79
2022/12/12 10:21:54;;;;;;;27.00;16.65;;;;;;;;;;5046819;28;20425;-79
2022/12/12 10:24:32;;;;;;;25.80;15.85;;;;;;;;;;5052708;28;20473;-79
2022/12/12 10:27:00;;;;;;;27.38;16.67;;;;;;;;;;5041927;28;20427;-78
2022/12/12 10:29:26;;;;;;;29.92;17.42;;;;;;;;;;5052693;28;20451;-79
2022/12/12 10:31:58;;;;;;;25.83;15.73;;;;;;;;;;5052864;28;20474;-79
2022/12/12 10:34:27;;;;;;;25.38;15.60;;;;;;;;;;5049251;28;20423;-78
2022/12/12 10:37:14;;;;;;;25.90;15.88;;;;;;;;;;5023379;28;20759;-79
2022/12/12 10:40:00;;;;;;;26.58;16.42;;;;;;;;;;5039171;28;20495;-80
2022/12/12 10:42:52;;;;;;;28.13;17.05;;;;;;;;;;5053590;28;20783;-79
2022/12/12 10:45:28;;;;;;;42.67;27.08;;;;;;;;;;5014571;28;20775;-79
2022/12/12 10:47:54;;;;;;;38.25;24.80;;;;;;;;;;5042476;28;20426;-80
2022/12/12 10:50:26;;;;;;;34.90;24.17;;;;;;;;;;5044032;28;20415;-79
2022/12/12 10:52:52;;;;;;;43.85;28.50;;;;;;;;;;5052142;28;20416;-79
2022/12/12 10:55:20;;;;;;;39.03;25.17;;;;;;;;;;5034363;28;20931;-79
2022/12/12 10:57:46;;;;;;;42.23;28.37;;;;;;;;;;5057071;28;20496;-79
2022/12/12 11:00:26;;;;;;;26.40;17.40;;;;;;;;;;5056067;28;20455;-78
2022/12/12 11:02:55;;;;;;;27.48;16.65;;;;;;;;;;5056362;28;20484;-80
2022/12/12 11:05:23;;;;;;;27.08;17.38;;;;;;;;;;5056655;28;20411;-79
2022/12/12 11:08:06;;;;;;;25.52;16.05;;;;;;;;;;5042622;28;20421;-78
2022/12/12 11:10:33;;;;;;;26.58;17.35;;;;;;;;;;5035011;28;20419;-79
2022/12/12 11:13:12;;;;;;;27.00;16.50;;;;;;;;;;5054414;28;20488;-80
2022/12/12 11:15:50;;;;;;;25.15;16.42;;;;;;;;;;5051944;28;20415;-80
2022/12/12 11:18:19;;;;;;;27.70;17.33;;;;;;;;;;5055853;28;20432;-79
2022/12/12 11:20:47;;;;;;;26.55;16.05;;;;;;;;;;5039720;28;20424;-79
2022/12/12 11:23:16;;;;;;;25.38;15.98;;;;;;;;;;5050257;28;20426;-79
2022/12/12 11:25:42;;;;;;;26.02;16.02;;;;;;;;;;5046668;28;20514;-78
2022/12/12 11:28:15;;;;;;;26.37;16.33;;;;;;;;;;5033231;28;20459;-78
2022/12/12 11:30:42;;;;;;;25.85;16.13;;;;;;;;;;5054550;28;20447;-79
2022/12/12 11:33:14;;;;;;;25.45;16.63;;;;;;;;;;5045645;28;20509;-80
2022/12/12 11:35:42;;;;;;;27.23;16.87;;;;;;;;;;5036394;28;20467;-79
2022/12/12 11:38:24;;;;;;;24.48;15.35;;;;;;;;;;5050824;28;20515;-79
2022/12/12 11:41:04;;;;;;;26.45;16.25;;;;;;;;;;5036290;28;20785;-79
2022/12/12 11:43:48;;;;;;;27.45;17.13;;;;;;;;;;5021608;28;20424;-79
2022/12/12 11:46:14;;;;;;;26.95;16.67;;;;;;;;;;5045403;28;20439;-79
2022/12/12 11:48:40;;;;;;;25.25;16.08;;;;;;;;;;5049824;28;20429;-78
2022/12/12 11:51:06;;;;;;;27.63;15.77;;;;;;;;;;5044127;28;20421;-80
2022/12/12 11:53:35;;;;;;;26.63;16.00;;;;;;;;;;5035099;28;20431;-78
2022/12/12 11:56:20;;;;;;;25.77;16.08;;;;;;;;;;5041817;28;20437;-78
2022/12/12 11:58:51;;;;;;;27.20;16.27;;;;;;;;;;5018842;28;20430;-80
2022/12/12 12:01:27;;;;;;;26.85;16.20;;;;;;;;;;5042754;28;20750;-79
2022/12/12 12:03:53;;;;;;;29.55;17.25;;;;;;;;;;5090821;28;20395;-79
2022/12/12 12:06:30;;;;;;;27.92;17.17;;;;;;;;;;5055988;28;20416;-79
2022/12/12 12:09:15;;;;;;;26.25;16.33;;;1.70;99.90;;;;;;5055561;28;20414;-77
2022/12/12 12:11:54;;;;;;;26.50;16.02;;;;;;;;;;5054458;28;20407;-78
2022/12/12 12:14:36;;;;;;;28.80;16.95;;;;;;;;;;5053923;28;20418;-79
2022/12/12 12:17:21;;;;;;;25.25;16.20;;;2.50;99.90;;;;;;5049990;28;21031;-78
2022/12/12 12:20:05;;;;;;;26.92;16.83;;;;;;;;;;5047029;28;20457;-80
2022/12/12 12:22:42;;;;;;;25.40;16.15;;;;;;;;;;5043074;28;20498;-79
2022/12/12 12:25:11;;;;;;;26.80;16.85;;;;;;;;;;5046760;28;20945;-80
2022/12/12 12:27:42;;;;;;;26.23;16.75;;;;;;;;;;5046417;28;20637;-79
2022/12/12 12:30:16;;;;;;;27.67;17.17;;;;;;;;;;5048782;28;20430;-79
2022/12/12 12:32:48;;;;;;;27.67;16.73;;;;;;;;;;5047176;28;20431;-80
2022/12/12 12:35:17;;;;;;;27.13;17.40;;;;;;;;;;5061064;28;20423;-80
2022/12/12 12:38:02;;;;;;;28.15;16.50;;;;;;;;;;5044650;28;20415;-79
2022/12/12 12:40:48;;;;;;;25.48;16.25;;;;;;;;;;5039069;28;20454;-79
2022/12/12 12:43:24;;;;;;;28.50;17.60;;;;;;;;;;5039154;28;20515;-79
2022/12/12 12:45:56;;;;;;;26.60;16.87;;;;;;;;;;5056513;28;20419;-79
2022/12/12 12:48:31;;;;;;;26.30;16.92;;;;;;;;;;5046434;28;20412;-79
2022/12/12 12:51:02;;;;;;;25.23;16.50;;;;;;;;;;5057903;28;20426;-79
2022/12/12 12:53:37;;;;;;;27.50;16.83;;;;;;;;;;5052113;28;20429;-79
2022/12/12 12:56:21;;;;;;;26.92;16.33;;;;;;;;;;5056252;28;20483;-80
2022/12/12 12:58:48;;;;;;;25.10;16.35;;;;;;;;;;5035379;28;20420;-79
2022/12/12 13:01:17;;;;;;;29.27;18.67;;;;;;;;;;5045922;28;20493;-79
2022/12/12 13:04:01;;;;;;;24.33;15.57;;;;;;;;;;5037065;28;20511;-79
2022/12/12 13:06:48;;;;;;;23.83;14.68;;;;;;;;;;5055388;28;20423;-80
2022/12/12 13:09:23;;;;;;;22.33;15.18;;;;;;;;;;5041463;28;20455;-78
2022/12/12 13:11:50;;;;;;;22.02;13.65;;;;;;;;;;5022960;28;20417;-80
2022/12/12 13:14:38;;;;;;;22.80;14.18;;;2.10;99.90;;;;;;5046266;28;20459;-79
2022/12/12 13:17:05;;;;;;;20.90;13.70;;;;;;;;;;5048584;28;20768;-79
2022/12/12 13:19:40;;;;;;;19.98;12.75;;;;;;;;;;5025007;28;20830;-78
2022/12/12 13:22:45;;;;;;;21.33;13.10;;;2.20;99.90;;;;;;5039220;28;20931;-78
2022/12/12 13:25:15;;;;;;;19.85;12.75;;;;;;;;;;5051594;28;20416;-79
2022/12/12 13:27:44;;;;;;;19.73;13.13;;;;;;;;;;5053282;28;20447;-79
2022/12/12 13:30:32;;;;;;;20.80;13.50;;;;;;;;;;5051990;28;20448;-79
2022/12/12 13:33:10;;;;;;;21.67;13.63;;;;;;;;;;5052051;28;20427;-79
2022/12/12 13:35:41;;;;;;;21.52;14.07;;;;;;;;;;5044717;28;20457;-80
2022/12/12 13:38:14;;;;;;;22.97;14.20;;;;;;;;;;5032455;28;20589;-81
2022/12/12 13:40:42;;;;;;;19.33;12.48;;;;;;;;;;5047359;28;20405;-81
2022/12/12 13:43:25;;;;;;;19.70;12.77;;;;;;;;;;5048173;28;20427;-79
2022/12/12 13:45:52;;;;;;;20.05;12.40;;;;;;;;;;5051022;28;20424;-79
2022/12/12 13:48:28;;;;;;;19.42;12.60;;;;;;;;;;5041044;28;20424;-79
2022/12/12 13:51:13;;;;;;;21.83;13.82;;;;;;;;;;5051310;28;20941;-79
2022/12/12 13:53:39;;;;;;;20.58;13.82;;;;;;;;;;5048695;28;20425;-79
2022/12/12 13:56:25;;;;;;;21.63;13.98;;;;;;;;;;5046026;28;20502;-79
2022/12/12 13:58:51;;;;;;;21.23;13.90;;;;;;;;;;5023441;28;21066;-80
2022/12/12 14:01:26;;;;;;;23.88;14.10;;;;;;;;;;5043590;28;20414;-80
2022/12/12 14:03:52;;;;;;;22.55;14.18;;;;;;;;;;5031771;28;20415;-79
2022/12/12 14:06:19;;;;;;;21.98;12.98;;;;;;;;;;5032033;28;20480;-79
2022/12/12 14:08:49;;;;;;;22.43;13.77;;;;;;;;;;5043695;28;20460;-79
2022/12/12 14:11:31;;;;;;;22.60;13.87;;;;;;;;;;5046406;28;20473;-80
2022/12/12 14:14:05;;;;;;;21.75;13.23;;;;;;;;;;5049923;28;20507;-81
2022/12/12 14:16:31;;;;;;;21.15;13.88;;;;;;;;;;5041143;28;20432;-79
2022/12/12 14:19:17;;;;;;;22.25;14.55;;;;;;;;;;5048564;28;20425;-79
2022/12/12 14:21:46;;;;;;;21.48;14.05;;;;;;;;;;5044505;28;20427;-80
2022/12/12 14:24:34;;;;;;;23.00;14.45;;;;;;;;;;5044350;28;20425;-80
2022/12/12 14:27:01;;;;;;;25.02;16.15;;;;;;;;;;5030962;28;20833;-80
2022/12/12 14:29:28;;;;;;;23.98;15.75;;;;;;;;;;5058992;28;20403;-80
2022/12/12 14:32:12;;;;;;;24.15;15.98;;;;;;;;;;5049337;28;20481;-80
2022/12/12 14:34:39;;;;;;;22.30;15.20;;;;;;;;;;5050063;28;20415;-81
2022/12/12 14:37:15;;;;;;;31.08;20.48;;;;;;;;;;5056159;28;20791;-79
2022/12/12 14:40:00;;;;;;;24.40;16.27;;;;;;;;;;5036682;28;20463;-79
2022/12/12 14:42:29;;;;;;;22.48;14.68;;;;;;;;;;5038393;28;20421;-80
2022/12/12 14:44:55;;;;;;;23.33;14.93;;;;;;;;;;5037806;28;20419;-79